createdAt,value
2023-03-06T00:00:23.145Z,1021.51
2023-03-06T00:01:23.101Z,1018.38
2023-03-06T00:02:23.119Z,1002.26
2023-03-06T00:03:23.164Z,991.06
2023-03-06T00:04:23.109Z,987.38
2023-03-06T00:05:23.087Z,972.22
2023-03-06T00:06:23.067Z,965.17
2023-03-06T00:07:23.070Z,950.00
2023-03-06T00:08:23.073Z,943.26
2023-03-06T00:09:23.030Z,949.32
2023-03-06T00:10:23.034Z,947.97
2023-03-06T00:11:23.027Z,946.62
2023-03-06T00:12:23.005Z,933.33
2023-03-06T00:13:23.010Z,933.99
2023-03-06T00:14:23.003Z,922.33
2023-03-06T00:15:22.965Z,924.25
2023-03-06T00:16:23.140Z,890.82
2023-03-06T00:17:22.975Z,876.73
2023-03-06T00:18:22.968Z,867.01
2023-03-06T00:19:22.968Z,847.67
2023-03-06T00:20:22.946Z,844.44
2023-03-06T00:21:22.942Z,849.84
2023-03-06T00:22:22.908Z,850.38
2023-03-06T00:23:22.916Z,856.41
2023-03-06T00:24:22.923Z,858.06
2023-03-06T00:25:22.884Z,853.11
2023-03-06T00:26:22.890Z,854.21
2023-03-06T00:27:22.850Z,837.53
2023-03-06T00:28:22.843Z,838.06
2023-03-06T00:29:22.832Z,841.24
2023-03-06T00:30:22.852Z,839.12
2023-03-06T00:31:22.875Z,846.59
2023-03-06T00:32:22.816Z,839.65
2023-03-06T00:33:22.804Z,824.55
2023-03-06T00:34:22.790Z,820.99
2023-03-06T00:35:22.830Z,801.69
2023-03-06T00:36:22.790Z,793.08
2023-03-06T00:37:22.750Z,786.05
2023-03-06T00:38:22.755Z,776.41
2023-03-06T00:39:22.770Z,777.32
2023-03-06T00:40:22.743Z,776.41
2023-03-06T00:41:22.745Z,800.72
2023-03-06T00:42:22.739Z,817.96
2023-03-06T00:43:22.710Z,833.33
2023-03-06T00:44:22.689Z,831.77
2023-03-06T00:45:22.738Z,843.37
2023-03-06T00:46:22.696Z,835.95
2023-03-06T00:47:22.663Z,825.57
2023-03-06T00:48:22.674Z,821.49
2023-03-06T00:49:22.647Z,794.98
2023-03-06T00:50:22.642Z,775.51
2023-03-06T00:51:22.619Z,764.81
2023-03-06T00:52:22.629Z,757.83
2023-03-06T00:53:22.610Z,748.03
2023-03-06T00:54:22.610Z,747.19
2023-03-06T00:55:22.577Z,736.51
2023-03-06T00:56:22.573Z,732.45
2023-03-06T00:57:22.586Z,726.84
2023-03-06T00:58:22.573Z,717.42
2023-03-06T00:59:22.552Z,705.99
2023-03-06T01:00:22.534Z,704.49
2023-03-06T01:01:22.592Z,679.28
2023-03-06T01:02:22.607Z,676.51
2023-03-06T01:03:22.509Z,655.81
2023-03-06T01:04:22.490Z,637.56
2023-03-06T01:05:22.483Z,627.32
2023-03-06T01:06:22.474Z,617.99
2023-03-06T01:07:22.457Z,599.58
2023-03-06T01:08:22.501Z,588.43
2023-03-06T01:09:22.449Z,573.20
2023-03-06T01:10:22.446Z,566.36
2023-03-06T01:11:22.428Z,554.54
2023-03-06T01:12:23.568Z,543.20
2023-03-06T01:13:22.501Z,532.75
2023-03-06T01:14:22.465Z,529.35
2023-03-06T01:15:22.392Z,527.25
2023-03-06T01:16:22.388Z,515.79
2023-03-06T01:17:22.392Z,499.12
2023-03-06T01:18:22.367Z,493.56
2023-03-06T01:19:22.342Z,495.03
2023-03-06T01:20:22.354Z,499.12
2023-03-06T01:21:22.330Z,508.29
2023-03-06T01:22:22.317Z,511.42
2023-03-06T01:23:22.323Z,523.10
2023-03-06T01:24:22.300Z,519.01
2023-03-06T01:25:22.290Z,525.58
2023-03-06T01:26:22.295Z,526.00
2023-03-06T01:27:22.293Z,539.23
2023-03-06T01:28:22.308Z,545.88
2023-03-06T01:29:22.278Z,560.62
2023-03-06T01:30:22.269Z,577.68
2023-03-06T01:31:22.270Z,584.29
2023-03-06T01:32:22.267Z,577.18
2023-03-06T01:33:22.207Z,583.77
2023-03-06T01:34:22.203Z,576.18
2023-03-06T01:35:22.240Z,578.18
2023-03-06T01:36:22.191Z,574.19
2023-03-06T01:37:22.188Z,579.70
2023-03-06T01:38:22.179Z,588.43
2023-03-06T01:39:22.171Z,612.85
2023-03-06T01:40:22.150Z,614.56
2023-03-06T01:41:22.142Z,617.99
2023-03-06T01:42:22.208Z,627.92
2023-03-06T01:43:22.158Z,647.50
2023-03-06T01:44:22.112Z,650.03
2023-03-06T01:45:22.104Z,663.67
2023-03-06T01:46:22.098Z,672.40
2023-03-06T01:47:22.079Z,693.46
2023-03-06T01:48:22.093Z,715.88
2023-03-06T01:49:22.087Z,727.64
2023-03-06T01:50:22.057Z,740.62
2023-03-06T01:51:22.082Z,750.56
2023-03-06T01:52:22.037Z,734.07
2023-03-06T01:53:22.039Z,742.27
2023-03-06T01:54:22.015Z,738.97
2023-03-06T01:55:22.003Z,734.07
2023-03-06T01:56:21.999Z,731.65
2023-03-06T01:57:22.006Z,712.81
2023-03-06T01:58:21.986Z,694.91
2023-03-06T01:59:21.989Z,698.57
2023-03-06T02:00:21.953Z,700.04
2023-03-06T02:01:21.986Z,689.86
2023-03-06T02:02:22.015Z,694.18
2023-03-06T02:03:21.947Z,683.47
2023-03-06T02:04:21.944Z,685.59
2023-03-06T02:05:21.958Z,684.18
2023-03-06T02:06:22.005Z,675.82
2023-03-06T02:07:21.883Z,690.58
2023-03-06T02:08:21.893Z,677.20
2023-03-06T02:09:21.867Z,657.76
2023-03-06T02:10:21.891Z,657.11
2023-03-06T02:11:21.911Z,640.02
2023-03-06T02:12:21.882Z,643.11
2023-03-06T02:13:21.867Z,631.50
2023-03-06T02:14:21.838Z,619.72
2023-03-06T02:15:21.856Z,606.15
2023-03-06T02:16:21.851Z,599.04
2023-03-06T02:17:21.806Z,592.10
2023-03-06T02:18:21.784Z,579.70
2023-03-06T02:19:21.785Z,572.70
2023-03-06T02:20:21.777Z,553.61
2023-03-06T02:21:21.807Z,546.78
2023-03-06T02:22:21.764Z,532.32
2023-03-06T02:23:21.736Z,509.07
2023-03-06T02:24:21.730Z,496.89
2023-03-06T02:25:21.724Z,507.90
2023-03-06T02:26:21.725Z,500.63
2023-03-06T02:27:21.714Z,497.63
2023-03-06T02:28:21.700Z,493.93
2023-03-06T02:29:21.716Z,494.67
2023-03-06T02:30:21.680Z,485.62
2023-03-06T02:31:21.758Z,494.67
2023-03-06T02:32:21.685Z,493.93
2023-03-06T02:33:21.671Z,481.75
2023-03-06T02:34:21.675Z,465.55
2023-03-06T02:35:21.696Z,445.27
2023-03-06T02:36:21.630Z,457.22
2023-03-06T02:37:21.612Z,466.20
2023-03-06T02:38:21.612Z,461.02
2023-03-06T02:39:21.579Z,458.16
2023-03-06T02:40:21.615Z,452.24
2023-03-06T02:41:21.577Z,443.78
2023-03-06T02:42:21.595Z,449.79
2023-03-06T02:43:21.577Z,462.31
2023-03-06T02:44:21.564Z,462.31
2023-03-06T02:45:21.522Z,463.27
2023-03-06T02:46:21.536Z,466.53
2023-03-06T02:47:21.507Z,472.50
2023-03-06T02:48:21.510Z,484.56
2023-03-06T02:49:21.515Z,487.76
2023-03-06T02:50:21.534Z,495.03
2023-03-06T02:51:21.506Z,504.43
2023-03-06T02:52:21.511Z,509.07
2023-03-06T02:53:21.478Z,513.79
2023-03-06T02:54:21.523Z,509.85
2023-03-06T02:55:21.418Z,497.26
2023-03-06T02:56:21.406Z,489.92
2023-03-06T02:57:21.408Z,488.84
2023-03-06T02:58:21.454Z,492.10
2023-03-06T02:59:21.392Z,500.25
2023-03-06T03:00:21.376Z,512.21
2023-03-06T03:01:21.403Z,518.61
2023-03-06T03:02:21.370Z,528.51
2023-03-06T03:03:21.388Z,519.82
2023-03-06T03:04:21.373Z,517.80
2023-03-06T03:05:21.352Z,517.80
2023-03-06T03:06:21.329Z,509.85
2023-03-06T03:07:21.332Z,496.51
2023-03-06T03:08:21.299Z,496.14
2023-03-06T03:09:21.285Z,492.83
2023-03-06T03:10:21.323Z,507.90
2023-03-06T03:11:21.287Z,499.88
2023-03-06T03:12:21.257Z,486.69
2023-03-06T03:13:21.252Z,488.84
2023-03-06T03:14:21.253Z,487.05
2023-03-06T03:15:21.231Z,493.93
2023-03-06T03:16:21.344Z,490.28
2023-03-06T03:17:21.208Z,491.37
2023-03-06T03:18:21.220Z,489.56
2023-03-06T03:19:21.206Z,504.43
2023-03-06T03:20:21.183Z,509.85
2023-03-06T03:21:21.179Z,511.03
2023-03-06T03:22:21.178Z,517.80
2023-03-06T03:23:21.197Z,529.35
2023-03-06T03:24:21.206Z,532.32
2023-03-06T03:25:21.170Z,531.04
2023-03-06T03:26:21.129Z,528.93
2023-03-06T03:27:21.119Z,521.46
2023-03-06T03:28:21.121Z,542.31
2023-03-06T03:29:21.101Z,540.55
2023-03-06T03:30:21.109Z,531.89
2023-03-06T03:31:21.152Z,529.35
2023-03-06T03:32:21.166Z,519.82
2023-03-06T03:33:21.062Z,513.40
2023-03-06T03:34:21.055Z,518.61
2023-03-06T03:35:21.068Z,511.42
2023-03-06T03:36:21.068Z,516.99
2023-03-06T03:37:21.051Z,517.40
2023-03-06T03:38:21.061Z,526.00
2023-03-06T03:39:21.023Z,506.35
2023-03-06T03:40:21.005Z,495.03
2023-03-06T03:41:21.005Z,498.38
2023-03-06T03:42:20.970Z,487.76
2023-03-06T03:43:20.991Z,485.27
2023-03-06T03:44:20.971Z,476.57
2023-03-06T03:45:20.944Z,473.17
2023-03-06T03:46:21.072Z,456.59
2023-03-06T03:47:20.954Z,457.22
2023-03-06T03:48:20.929Z,458.48
2023-03-06T03:49:20.922Z,455.65
2023-03-06T03:50:20.934Z,458.80
2023-03-06T03:51:20.897Z,449.79
2023-03-06T03:52:20.905Z,469.83
2023-03-06T03:53:20.902Z,484.21
2023-03-06T03:54:20.881Z,501.39
2023-03-06T03:55:20.853Z,524.75
2023-03-06T03:56:20.865Z,541.87
2023-03-06T03:57:20.842Z,553.61
2023-03-06T03:58:20.831Z,559.68
2023-03-06T03:59:20.826Z,561.57
2023-03-06T04:00:20.803Z,564.43
2023-03-06T04:01:20.806Z,557.33
2023-03-06T04:02:20.848Z,555.00
2023-03-06T04:03:20.782Z,554.54
2023-03-06T04:04:20.794Z,549.95
2023-03-06T04:05:20.752Z,531.89
2023-03-06T04:06:20.757Z,522.28
2023-03-06T04:07:20.749Z,516.19
2023-03-06T04:08:20.729Z,496.51
2023-03-06T04:09:20.717Z,482.45
2023-03-06T04:10:20.731Z,470.16
2023-03-06T04:11:20.696Z,459.75
2023-03-06T04:12:20.712Z,433.07
2023-03-06T04:13:20.686Z,423.14
2023-03-06T04:14:20.670Z,417.30
2023-03-06T04:15:20.667Z,410.84
2023-03-06T04:16:20.724Z,421.27
2023-03-06T04:17:20.640Z,408.07
2023-03-06T04:18:20.659Z,406.82
2023-03-06T04:19:20.660Z,409.83
2023-03-06T04:20:20.601Z,412.37
2023-03-06T04:21:20.629Z,402.38
2023-03-06T04:22:20.582Z,391.48
2023-03-06T04:23:20.588Z,400.20
2023-03-06T04:24:20.565Z,406.32
2023-03-06T04:25:20.624Z,421.00
2023-03-06T04:26:20.547Z,413.66
2023-03-06T04:27:20.564Z,389.41
2023-03-06T04:28:20.527Z,364.54
2023-03-06T04:29:20.538Z,341.32
2023-03-06T04:30:20.527Z,349.72
2023-03-06T04:31:20.537Z,358.55
2023-03-06T04:32:21.589Z,356.20
2023-03-06T04:33:20.533Z,358.15
2023-03-06T04:34:20.481Z,364.14
2023-03-06T04:35:20.536Z,368.65
2023-03-06T04:36:20.477Z,360.92
2023-03-06T04:37:20.444Z,368.24
2023-03-06T04:38:20.448Z,361.72
2023-03-06T04:39:20.442Z,357.37
2023-03-06T04:40:20.425Z,348.60
2023-03-06T04:41:20.428Z,347.86
2023-03-06T04:42:20.400Z,346.76
2023-03-06T04:43:20.406Z,334.68
2023-03-06T04:44:20.394Z,330.96
2023-03-06T04:45:20.370Z,324.07
2023-03-06T04:46:20.380Z,326.01
2023-03-06T04:47:20.349Z,318.39
2023-03-06T04:48:20.357Z,319.01
2023-03-06T04:49:20.331Z,320.89
2023-03-06T04:50:20.363Z,313.50
2023-03-06T04:51:20.358Z,308.47
2023-03-06T04:52:20.316Z,309.35
2023-03-06T04:53:20.298Z,307.89
2023-03-06T04:54:20.320Z,306.16
2023-03-06T04:55:20.285Z,304.17
2023-03-06T04:56:20.264Z,299.98
2023-03-06T04:57:20.294Z,301.92
2023-03-06T04:58:20.246Z,293.25
2023-03-06T04:59:20.264Z,286.32
2023-03-06T05:00:20.276Z,284.57
2023-03-06T05:01:20.272Z,284.32
2023-03-06T05:02:20.278Z,283.58
2023-03-06T05:03:20.228Z,280.66
2023-03-06T05:04:20.218Z,275.69
2023-03-06T05:05:20.194Z,268.89
2023-03-06T05:06:20.173Z,267.35
2023-03-06T05:07:20.192Z,264.54
2023-03-06T05:08:20.138Z,262.41
2023-03-06T05:09:20.144Z,260.95
2023-03-06T05:10:20.188Z,260.95
2023-03-06T05:11:20.127Z,257.05
2023-03-06T05:12:20.107Z,257.86
2023-03-06T05:13:20.097Z,262.41
2023-03-06T05:14:20.114Z,269.77
2023-03-06T05:15:20.093Z,263.89
2023-03-06T05:16:20.119Z,263.47
2023-03-06T05:17:20.080Z,257.65
2023-03-06T05:18:20.066Z,264.96
2023-03-06T05:19:20.050Z,260.32
2023-03-06T05:20:20.016Z,257.86
2023-03-06T05:21:20.029Z,253.46
2023-03-06T05:22:20.006Z,248.07
2023-03-06T05:23:20.022Z,248.26
2023-03-06T05:24:19.981Z,238.65
2023-03-06T05:25:20.006Z,236.58
2023-03-06T05:26:19.938Z,231.06
2023-03-06T05:27:19.968Z,226.42
2023-03-06T05:28:19.941Z,223.18
2023-03-06T05:29:19.922Z,227.53
2023-03-06T05:30:19.882Z,232.38
2023-03-06T05:31:19.930Z,233.87
2023-03-06T05:32:19.967Z,232.88
2023-03-06T05:33:19.854Z,231.06
2023-03-06T05:34:19.834Z,234.71
2023-03-06T05:35:19.956Z,237.27
2023-03-06T05:36:19.832Z,244.91
2023-03-06T05:37:19.805Z,245.46
2023-03-06T05:38:19.877Z,249.78
2023-03-06T05:39:19.796Z,249.78
2023-03-06T05:40:19.783Z,258.67
2023-03-06T05:41:19.797Z,255.64
2023-03-06T05:42:19.811Z,257.05
2023-03-06T05:43:19.762Z,252.68
2023-03-06T05:44:19.755Z,254.84
2023-03-06T05:45:19.736Z,246.76
2023-03-06T05:46:19.842Z,252.09
2023-03-06T05:47:19.715Z,243.64
2023-03-06T05:48:19.724Z,244.55
2023-03-06T05:49:19.718Z,237.79
2023-03-06T05:50:19.695Z,231.72
2023-03-06T05:51:19.701Z,231.39
2023-03-06T05:52:19.671Z,225.80
2023-03-06T05:53:19.675Z,224.09
2023-03-06T05:54:19.661Z,210.66
2023-03-06T05:55:19.659Z,212.03
2023-03-06T05:56:19.704Z,211.21
2023-03-06T05:57:19.650Z,213.27
2023-03-06T05:58:19.608Z,212.86
2023-03-06T05:59:19.600Z,210.66
2023-03-06T06:00:19.638Z,208.25
2023-03-06T06:01:19.588Z,201.45
2023-03-06T06:02:19.608Z,196.13
2023-03-06T06:03:19.628Z,194.96
2023-03-06T06:04:19.553Z,186.40
2023-03-06T06:05:19.548Z,182.69
2023-03-06T06:06:19.545Z,179.54
2023-03-06T06:07:19.568Z,182.89
2023-03-06T06:08:19.534Z,183.30
2023-03-06T06:09:19.503Z,185.13
2023-03-06T06:10:19.519Z,186.29
2023-03-06T06:11:19.477Z,185.13
2023-03-06T06:12:19.473Z,187.47
2023-03-06T06:13:19.497Z,183.50
2023-03-06T06:14:19.469Z,187.47
2023-03-06T06:15:19.464Z,186.61
2023-03-06T06:16:19.495Z,175.93
2023-03-06T06:17:19.430Z,173.54
2023-03-06T06:18:19.416Z,170.34
2023-03-06T06:19:19.421Z,160.94
2023-03-06T06:20:19.417Z,156.99
2023-03-06T06:21:19.400Z,154.79
2023-03-06T06:22:19.378Z,144.06
2023-03-06T06:23:19.385Z,136.61
2023-03-06T06:24:19.381Z,130.39
2023-03-06T06:25:19.368Z,126.04
2023-03-06T06:26:19.370Z,122.51
2023-03-06T06:27:19.340Z,117.57
2023-03-06T06:28:19.318Z,116.91
2023-03-06T06:29:19.309Z,111.13
2023-03-06T06:30:19.316Z,106.36
2023-03-06T06:31:19.307Z,102.81
2023-03-06T06:32:19.352Z,97.11
2023-03-06T06:33:19.298Z,95.11
2023-03-06T06:34:19.259Z,93.68
2023-03-06T06:35:19.395Z,89.93
2023-03-06T06:36:19.291Z,88.87
2023-03-06T06:37:19.265Z,88.58
2023-03-06T06:38:19.238Z,89.54
2023-03-06T06:39:19.256Z,91.61
2023-03-06T06:40:19.234Z,90.81
2023-03-06T06:41:51.101Z,90.81
2023-03-06T06:42:33.304Z,90.42
2023-03-06T06:43:19.207Z,91.81
2023-03-06T06:44:19.161Z,92.02
2023-03-06T06:45:19.176Z,90.71
2023-03-06T06:46:56.205Z,89.15
2023-03-06T06:47:24.926Z,88.77
2023-03-06T06:48:19.212Z,91.21
2023-03-06T06:49:19.243Z,90.81
2023-03-06T06:50:19.115Z,92.63
2023-03-06T06:51:19.125Z,93.68
2023-03-06T06:52:19.159Z,93.99
2023-03-06T06:53:19.073Z,94.21
2023-03-06T06:54:19.090Z,95.73
2023-03-06T06:55:19.086Z,95.82
2023-03-06T06:56:19.070Z,99.31
2023-03-06T06:57:19.056Z,99.43
2023-03-06T06:58:19.059Z,101.31
2023-03-06T06:59:19.042Z,103.39
2023-03-06T07:00:19.023Z,108.45
2023-03-06T07:01:19.033Z,111.50
2023-03-06T07:02:18.987Z,112.56
2023-03-06T07:03:18.985Z,116.75
2023-03-06T07:04:19.001Z,121.71
2023-03-06T07:05:20.260Z,124.44
2023-03-06T07:06:18.962Z,132.15
2023-03-06T07:07:18.964Z,136.94
2023-03-06T07:08:18.955Z,142.09
2023-03-06T07:09:18.939Z,145.96
2023-03-06T07:10:20.757Z,150.73
2023-03-06T07:11:18.918Z,159.85
2023-03-06T07:12:18.942Z,164.93
2023-03-06T07:13:18.882Z,171.74
2023-03-06T07:14:18.902Z,175.74
2023-03-06T07:15:18.894Z,181.30
2023-03-06T07:16:18.932Z,183.50
2023-03-06T07:17:18.865Z,184.11
2023-03-06T07:18:18.864Z,187.90
2023-03-06T07:19:18.827Z,192.89
2023-03-06T07:20:18.848Z,193.00
2023-03-06T07:21:18.823Z,196.01
2023-03-06T07:22:18.817Z,199.97
2023-03-06T07:23:18.796Z,197.79
2023-03-06T07:24:18.799Z,198.27
2023-03-06T07:25:18.774Z,195.77
2023-03-06T07:26:18.778Z,199.60
2023-03-06T07:27:18.824Z,201.07
2023-03-06T07:28:19.673Z,201.94
2023-03-06T07:29:18.736Z,202.19
2023-03-06T07:30:18.737Z,205.76
2023-03-06T07:31:18.775Z,210.39
2023-03-06T07:32:18.742Z,216.24
2023-03-06T07:33:18.697Z,220.62
2023-03-06T07:34:18.704Z,222.27
2023-03-06T07:35:20.406Z,229.44
2023-03-06T07:36:18.710Z,236.75
2023-03-06T07:37:18.910Z,248.83
2023-03-06T07:38:18.652Z,253.46
2023-03-06T07:39:18.637Z,251.90
2023-03-06T07:40:18.638Z,252.09
2023-03-06T07:41:20.446Z,252.68
2023-03-06T07:42:18.615Z,258.06
2023-03-06T07:43:19.740Z,260.95
2023-03-06T07:44:18.588Z,259.29
2023-03-06T07:45:18.698Z,251.70
2023-03-06T07:46:18.664Z,244.91
2023-03-06T07:47:18.573Z,243.27
2023-03-06T07:48:18.575Z,241.83
2023-03-06T07:49:18.563Z,240.76
2023-03-06T07:50:18.588Z,231.88
2023-03-06T07:51:18.535Z,223.63
2023-03-06T07:52:18.525Z,218.11
2023-03-06T07:53:18.499Z,205.37
2023-03-06T07:54:18.565Z,202.95
2023-03-06T07:55:18.532Z,201.57
2023-03-06T07:56:18.514Z,204.98
2023-03-06T07:57:18.487Z,210.26
2023-03-06T07:58:18.481Z,219.58
2023-03-06T07:59:18.461Z,231.72
2023-03-06T08:00:18.536Z,245.46
2023-03-06T08:01:18.435Z,256.64
2023-03-06T08:02:18.448Z,266.69
2023-03-06T08:03:18.463Z,278.51
2023-03-06T08:04:18.475Z,297.25
2023-03-06T08:05:18.401Z,314.40
2023-03-06T08:06:18.384Z,334.00
2023-03-06T08:07:18.407Z,344.93
2023-03-06T08:08:18.364Z,347.49
2023-03-06T08:09:18.367Z,367.41
2023-03-06T08:10:18.362Z,377.60
2023-03-06T08:11:18.344Z,377.60
2023-03-06T08:12:18.319Z,391.71
2023-03-06T08:13:18.316Z,409.33
2023-03-06T08:14:18.322Z,428.88
2023-03-06T08:15:18.298Z,451.93
2023-03-06T08:16:18.313Z,477.60
2023-03-06T08:17:18.278Z,495.03
2023-03-06T08:18:18.306Z,532.75
2023-03-06T08:19:18.259Z,548.58
2023-03-06T08:20:18.276Z,566.36
2023-03-06T08:21:18.235Z,595.82
2023-03-06T08:22:18.237Z,639.40
2023-03-06T08:23:18.216Z,679.97
2023-03-06T08:24:18.210Z,692.74
2023-03-06T08:25:18.202Z,700.04
2023-03-06T08:26:18.219Z,709.00
2023-03-06T08:27:18.192Z,728.44
2023-03-06T08:28:18.159Z,780.06
2023-03-06T08:29:18.150Z,823.53
2023-03-06T08:30:18.142Z,833.85
2023-03-06T08:31:18.153Z,869.28
2023-03-06T08:32:18.152Z,896.83
2023-03-06T08:33:18.121Z,901.69
2023-03-06T08:34:18.110Z,909.71
2023-03-06T08:35:18.094Z,898.65
2023-03-06T08:36:18.087Z,889.04
2023-03-06T08:37:18.118Z,917.87
2023-03-06T08:38:18.116Z,926.83
2023-03-06T08:39:18.070Z,913.46
2023-03-06T08:40:18.083Z,900.47
2023-03-06T08:41:18.043Z,878.47
2023-03-06T08:42:18.039Z,902.31
2023-03-06T08:43:18.016Z,922.33
2023-03-06T08:44:18.031Z,952.04
2023-03-06T08:45:18.021Z,967.98
2023-03-06T08:46:17.993Z,988.11
2023-03-06T08:47:18.009Z,1020.72
2023-03-06T08:48:17.972Z,1043.96
2023-03-06T08:49:17.951Z,1063.15
2023-03-06T08:50:17.953Z,1094.65
2023-03-06T08:51:17.942Z,1119.53
2023-03-06T08:52:17.941Z,1162.59
2023-03-06T08:53:17.974Z,1244.15
2023-03-06T08:54:17.915Z,1332.67
2023-03-06T08:55:17.907Z,1427.04
2023-03-06T08:56:17.889Z,1489.36
2023-03-06T08:57:17.887Z,1502.82
2023-03-06T08:58:17.874Z,1552.83
2023-03-06T08:59:17.858Z,1580.51
2023-03-06T09:00:17.885Z,1634.91
2023-03-06T09:01:17.867Z,1697.51
2023-03-06T09:02:17.852Z,1719.46
2023-03-06T09:03:17.824Z,1756.94
2023-03-06T09:04:17.808Z,1815.70
2023-03-06T09:05:17.814Z,1810.76
2023-03-06T09:06:17.852Z,1860.14
2023-03-06T09:07:17.782Z,1901.36
2023-03-06T09:08:17.798Z,1986.56
2023-03-06T09:09:17.782Z,2033.64
2023-03-06T09:10:17.810Z,2033.64
2023-03-06T09:11:17.735Z,2025.89
2023-03-06T09:12:17.732Z,2062.01
2023-03-06T09:13:17.742Z,2086.27
2023-03-06T09:14:17.714Z,2070.04
2023-03-06T09:15:17.838Z,2010.58
2023-03-06T09:16:17.737Z,1958.76
2023-03-06T09:17:17.730Z,1931.73
2023-03-06T09:18:17.673Z,1933.14
2023-03-06T09:19:17.667Z,1921.96
2023-03-06T09:20:17.659Z,1891.89
2023-03-06T09:21:17.734Z,1845.94
2023-03-06T09:22:17.643Z,1874.56
2023-03-06T09:23:17.614Z,1912.29
2023-03-06T09:24:17.631Z,1958.76
2023-03-06T09:25:17.602Z,1971.83
2023-03-06T09:26:17.658Z,1944.44
2023-03-06T09:27:17.579Z,1935.95
2023-03-06T09:28:17.607Z,1940.19
2023-03-06T09:29:17.615Z,1930.33
2023-03-06T09:30:17.561Z,1983.59
2023-03-06T09:31:17.696Z,1997.00
2023-03-06T09:32:17.565Z,2013.63
2023-03-06T09:33:17.539Z,2052.47
2023-03-06T09:34:17.528Z,2066.82
2023-03-06T09:35:17.566Z,2060.42
2023-03-06T09:36:17.530Z,2025.89
2023-03-06T09:37:17.502Z,2094.49
2023-03-06T09:38:17.529Z,2087.91
2023-03-06T09:39:17.468Z,2173.20
2023-03-06T09:40:17.457Z,2256.15
2023-03-06T09:41:17.470Z,2396.40
2023-03-06T09:42:17.459Z,2469.82
2023-03-06T09:43:17.436Z,2424.79
2023-03-06T09:44:17.412Z,2407.24
2023-03-06T09:45:17.462Z,2368.66
2023-03-06T09:46:17.404Z,2370.77
2023-03-06T09:47:17.406Z,2481.34
2023-03-06T09:48:17.391Z,2597.66
2023-03-06T09:49:17.366Z,2676.06
2023-03-06T09:50:17.410Z,2785.34
2023-03-06T09:51:17.442Z,2800.00
2023-03-06T09:52:17.334Z,2869.47
2023-03-06T09:53:17.339Z,2875.68
2023-03-06T09:54:17.317Z,2869.47
2023-03-06T09:55:17.342Z,2900.76
2023-03-06T09:56:17.397Z,2962.14
2023-03-06T09:57:17.281Z,3033.07
2023-03-06T09:58:17.291Z,3093.02
2023-03-06T09:59:17.301Z,3153.53
2023-03-06T10:00:17.329Z,3306.40
2023-03-06T10:01:17.260Z,3379.92
2023-03-06T10:02:17.342Z,3419.02
2023-03-06T10:03:17.307Z,3497.70
2023-03-06T10:04:17.217Z,3666.44
2023-03-06T10:05:17.233Z,3871.91
2023-03-06T10:06:17.226Z,4036.42
2023-03-06T10:07:17.227Z,4067.28
2023-03-06T10:08:17.199Z,4015.09
2023-03-06T10:09:17.156Z,3997.00
2023-03-06T10:10:17.166Z,4033.36
2023-03-06T10:11:17.152Z,4048.71
2023-03-06T10:12:17.153Z,4140.08
2023-03-06T10:13:17.179Z,4140.08
2023-03-06T10:14:17.151Z,3997.00
2023-03-06T10:15:17.126Z,3988.00
2023-03-06T10:16:17.158Z,3976.08
2023-03-06T10:17:17.151Z,4048.71
2023-03-06T10:18:17.099Z,4079.75
2023-03-06T10:19:17.095Z,4018.13
2023-03-06T10:20:17.063Z,3997.00
2023-03-06T10:21:19.432Z,3946.59
2023-03-06T10:22:17.037Z,4003.01
2023-03-06T10:23:17.038Z,4018.13
2023-03-06T10:24:17.038Z,4188.98
2023-03-06T10:25:17.022Z,4378.60
2023-03-06T10:26:17.078Z,4403.97
2023-03-06T10:27:17.061Z,4500.85
2023-03-06T10:28:16.991Z,4455.61
2023-03-06T10:29:16.981Z,4523.81
2023-03-06T10:30:16.965Z,4638.19
2023-03-06T10:31:17.048Z,4703.80
2023-03-06T10:32:17.031Z,4720.50
2023-03-06T10:33:16.941Z,4930.49
2023-03-06T10:34:16.937Z,5009.42
2023-03-06T10:35:17.084Z,5042.65
2023-03-06T10:36:16.921Z,5200.39
2023-03-06T10:37:16.892Z,5251.73
2023-03-06T10:38:16.894Z,5283.02
2023-03-06T10:39:16.876Z,5330.66
2023-03-06T10:40:16.863Z,5272.55
2023-03-06T10:41:16.883Z,5220.80
2023-03-06T10:42:16.867Z,5225.93
2023-03-06T10:43:16.833Z,5210.58
2023-03-06T10:44:16.860Z,5210.58
2023-03-06T10:45:16.831Z,5160.04
2023-03-06T10:46:16.851Z,5090.91
2023-03-06T10:47:16.803Z,5004.70
2023-03-06T10:48:16.806Z,4985.94
2023-03-06T10:49:16.773Z,5047.44
2023-03-06T10:50:16.781Z,5225.93
2023-03-06T10:51:18.574Z,5401.02
2023-03-06T10:52:16.751Z,5439.67
2023-03-06T10:53:16.759Z,5530.15
2023-03-06T10:54:16.776Z,5576.52
2023-03-06T10:55:16.708Z,5677.69
2023-03-06T10:56:16.712Z,5623.68
2023-03-06T10:57:16.709Z,5617.74
2023-03-06T10:58:16.685Z,5553.23
2023-03-06T10:59:16.684Z,5541.67
2023-03-06T11:00:16.693Z,5617.74
2023-03-06T11:01:16.700Z,5689.84
2023-03-06T11:02:16.681Z,5702.04
2023-03-06T11:03:16.668Z,5738.94
2023-03-06T11:04:16.658Z,5677.69
2023-03-06T11:05:16.618Z,5751.35
2023-03-06T11:06:16.616Z,5708.15
2023-03-06T11:07:16.594Z,5689.84
2023-03-06T11:08:16.608Z,5671.64
2023-03-06T11:09:16.626Z,5553.23
2023-03-06T11:10:16.580Z,5495.87
2023-03-06T11:11:22.418Z,5495.87
2023-03-06T11:12:16.549Z,5467.63
2023-03-06T11:13:16.527Z,5352.11
2023-03-06T11:14:16.533Z,5180.14
2023-03-06T11:15:16.553Z,5210.58
2023-03-06T11:16:16.562Z,5236.22
2023-03-06T11:17:16.511Z,5165.05
2023-03-06T11:18:16.503Z,5180.14
2023-03-06T11:19:16.475Z,5185.19
2023-03-06T11:20:16.466Z,5081.18
2023-03-06T11:21:16.477Z,5033.11
2023-03-06T11:22:16.438Z,5180.14
2023-03-06T11:23:16.454Z,5241.38
2023-03-06T11:24:16.425Z,5352.11
2023-03-06T11:25:16.411Z,5434.12
2023-03-06T11:26:16.437Z,5541.67
2023-03-06T11:27:16.497Z,5605.90
2023-03-06T11:28:16.384Z,5671.64
2023-03-06T11:29:16.451Z,5695.93
2023-03-06T11:30:16.385Z,5801.53
2023-03-06T11:31:16.462Z,5732.76
2023-03-06T11:32:16.362Z,5702.04
2023-03-06T11:33:16.338Z,5689.84
2023-03-06T11:34:16.322Z,5745.14
2023-03-06T11:35:16.350Z,5714.29
2023-03-06T11:36:16.315Z,5708.15
2023-03-06T11:37:16.315Z,5763.81
2023-03-06T11:38:16.322Z,5814.21
2023-03-06T11:39:16.272Z,5776.33
2023-03-06T11:40:16.263Z,5732.76
2023-03-06T11:41:16.250Z,5732.76
2023-03-06T11:42:16.260Z,5871.96
2023-03-06T11:43:16.257Z,5977.53
2023-03-06T11:44:16.221Z,6018.10
2023-03-06T11:45:16.239Z,6038.59
2023-03-06T11:46:16.242Z,6178.86
2023-03-06T11:47:16.222Z,6307.05
2023-03-06T11:48:16.224Z,6303.32
2023-03-06T11:49:16.189Z,6236.81
2023-03-06T11:50:16.163Z,6214.95
2023-03-06T11:51:16.165Z,6189.65
2023-03-06T11:52:16.179Z,6262.51
2023-03-06T11:53:16.143Z,6344.66
2023-03-06T11:54:16.146Z,6551.72
2023-03-06T11:55:16.126Z,6629.28
2023-03-06T11:56:16.102Z,6625.15
2023-03-06T11:57:16.114Z,6729.92
2023-03-06T11:58:16.090Z,6691.82
2023-03-06T11:59:16.073Z,6838.05
2023-03-06T12:00:16.091Z,6803.07
2023-03-06T12:01:16.062Z,6882.28
2023-03-06T12:02:16.117Z,7117.06
2023-03-06T12:03:16.043Z,7409.47
2023-03-06T12:04:16.046Z,7535.41
2023-03-06T12:05:16.110Z,7732.56
2023-03-06T12:06:16.019Z,7952.17
2023-03-06T12:07:16.026Z,8345.10
2023-03-06T12:08:15.982Z,8685.71
2023-03-06T12:09:15.996Z,8874.06
2023-03-06T12:10:16.054Z,9220.10
2023-03-06T12:13:15.951Z,10545.09
2023-03-06T12:14:15.922Z,10924.03
2023-03-06T12:15:15.951Z,11060.29
2023-03-06T12:16:15.963Z,11223.63
2023-03-06T12:17:15.951Z,10879.35
2023-03-06T12:18:15.911Z,10846.08
2023-03-06T12:19:15.916Z,10661.32
2023-03-06T12:20:15.908Z,10513.83
2023-03-06T12:21:15.856Z,10451.87
2023-03-06T12:22:15.842Z,10524.23
2023-03-06T12:23:16.070Z,10597.61
2023-03-06T12:24:15.829Z,10524.23